sensor_id;sensor_type;location;lat;lon;timestamp;P1;durP1;ratioP1;P2;durP2;ratioP2
51066;SDS011;37112;45.892;-123.962;2023-05-15T00:01:35;1.20;;;0.50;;
51066;SDS011;37112;45.892;-123.962;2023-05-15T00:04:09;1.70;;;0.70;;
51066;SDS011;37112;45.892;-123.962;2023-05-15T00:06:35;1.80;;;0.60;;
51066;SDS011;37112;45.892;-123.962;2023-05-15T00:09:11;1.50;;;0.80;;
51066;SDS011;37112;45.892;-123.962;2023-05-15T00:11:44;4.70;;;0.90;;
51066;SDS011;37112;45.892;-123.962;2023-05-15T00:14:17;1.70;;;0.80;;
51066;SDS011;37112;45.892;-123.962;2023-05-15T00:16:52;1.90;;;0.90;;
51066;SDS011;37112;45.892;-123.962;2023-05-15T00:19:28;2.30;;;0.60;;
51066;SDS011;37112;45.892;-123.962;2023-05-15T00:21:51;1.70;;;0.60;;
51066;SDS011;37112;45.892;-123.962;2023-05-15T00:24:15;0.80;;;0.50;;
51066;SDS011;37112;45.892;-123.962;2023-05-15T00:26:40;2.00;;;0.90;;
51066;SDS011;37112;45.892;-123.962;2023-05-15T00:29:13;1.40;;;0.50;;
51066;SDS011;37112;45.892;-123.962;2023-05-15T00:31:47;1.10;;;0.50;;
51066;SDS011;37112;45.892;-123.962;2023-05-15T00:34:22;1.40;;;0.60;;
51066;SDS011;37112;45.892;-123.962;2023-05-15T00:36:56;1.20;;;0.40;;
51066;SDS011;37112;45.892;-123.962;2023-05-15T00:39:31;0.70;;;0.50;;
51066;SDS011;37112;45.892;-123.962;2023-05-15T00:41:54;3.30;;;0.60;;
51066;SDS011;37112;45.892;-123.962;2023-05-15T00:44:20;2.10;;;0.40;;
51066;SDS011;37112;45.892;-123.962;2023-05-15T00:46:43;1.30;;;0.60;;
51066;SDS011;37112;45.892;-123.962;2023-05-15T00:49:18;1.80;;;1.00;;
51066;SDS011;37112;45.892;-123.962;2023-05-15T00:51:46;2.80;;;0.60;;
51066;SDS011;37112;45.892;-123.962;2023-05-15T00:54:12;2.50;;;0.60;;
51066;SDS011;37112;45.892;-123.962;2023-05-15T00:56:46;1.50;;;0.50;;
51066;SDS011;37112;45.892;-123.962;2023-05-15T00:59:10;2.20;;;0.50;;
51066;SDS011;37112;45.892;-123.962;2023-05-15T01:01:44;0.90;;;0.50;;
51066;SDS011;37112;45.892;-123.962;2023-05-15T01:04:19;1.20;;;0.50;;
51066;SDS011;37112;45.892;-123.962;2023-05-15T01:06:50;4.00;;;0.60;;
51066;SDS011;37112;45.892;-123.962;2023-05-15T01:09:17;4.90;;;0.60;;
51066;SDS011;37112;45.892;-123.962;2023-05-15T01:11:53;2.90;;;0.60;;
51066;SDS011;37112;45.892;-123.962;2023-05-15T01:14:21;2.50;;;0.60;;
51066;SDS011;37112;45.892;-123.962;2023-05-15T01:16:55;1.20;;;0.50;;
51066;SDS011;37112;45.892;-123.962;2023-05-15T01:19:29;1.20;;;0.70;;
51066;SDS011;37112;45.892;-123.962;2023-05-15T01:28:23;0.60;;;0.40;;
51066;SDS011;37112;45.892;-123.962;2023-05-15T01:30:59;2.00;;;0.50;;
51066;SDS011;37112;45.892;-123.962;2023-05-15T01:33:39;2.00;;;0.40;;
51066;SDS011;37112;45.892;-123.962;2023-05-15T01:36:18;1.50;;;0.30;;
51066;SDS011;37112;45.892;-123.962;2023-05-15T01:38:56;0.80;;;0.40;;
51066;SDS011;37112;45.892;-123.962;2023-05-15T01:41:33;2.00;;;0.40;;
51066;SDS011;37112;45.892;-123.962;2023-05-15T01:44:13;1.50;;;0.50;;
51066;SDS011;37112;45.892;-123.962;2023-05-15T01:46:41;1.50;;;0.50;;
51066;SDS011;37112;45.892;-123.962;2023-05-15T01:49:19;1.10;;;0.40;;
51066;SDS011;37112;45.892;-123.962;2023-05-15T01:51:47;1.30;;;0.50;;
51066;SDS011;37112;45.892;-123.962;2023-05-15T01:54:24;1.00;;;0.30;;
51066;SDS011;37112;45.892;-123.962;2023-05-15T01:56:52;1.30;;;0.40;;
51066;SDS011;37112;45.892;-123.962;2023-05-15T01:59:16;1.70;;;0.50;;
51066;SDS011;37112;45.892;-123.962;2023-05-15T02:01:53;0.50;;;0.30;;
51066;SDS011;37112;45.892;-123.962;2023-05-15T02:04:27;1.10;;;0.30;;
51066;SDS011;37112;45.892;-123.962;2023-05-15T02:07:05;1.60;;;0.30;;
51066;SDS011;37112;45.892;-123.962;2023-05-15T02:09:26;1.40;;;0.50;;
51066;SDS011;37112;45.892;-123.962;2023-05-15T02:12:11;0.90;;;0.40;;
51066;SDS011;37112;45.892;-123.962;2023-05-15T02:14:50;2.70;;;0.40;;
51066;SDS011;37112;45.892;-123.962;2023-05-15T02:17:13;1.40;;;0.70;;
51066;SDS011;37112;45.892;-123.962;2023-05-15T02:19:59;1.40;;;0.40;;
51066;SDS011;37112;45.892;-123.962;2023-05-15T02:22:21;1.00;;;0.50;;
51066;SDS011;37112;45.892;-123.962;2023-05-15T02:24:44;1.10;;;0.50;;
51066;SDS011;37112;45.892;-123.962;2023-05-15T02:27:03;1.10;;;0.30;;
51066;SDS011;37112;45.892;-123.962;2023-05-15T02:32:25;3.40;;;0.40;;
51066;SDS011;37112;45.892;-123.962;2023-05-15T02:35:06;2.60;;;0.40;;
51066;SDS011;37112;45.892;-123.962;2023-05-15T02:37:50;1.10;;;0.40;;
51066;SDS011;37112;45.892;-123.962;2023-05-15T02:40:15;0.50;;;0.40;;
51066;SDS011;37112;45.892;-123.962;2023-05-15T02:42:44;1.20;;;0.40;;
51066;SDS011;37112;45.892;-123.962;2023-05-15T02:45:13;1.30;;;0.30;;
51066;SDS011;37112;45.892;-123.962;2023-05-15T02:47:38;1.40;;;0.40;;
51066;SDS011;37112;45.892;-123.962;2023-05-15T02:50:13;2.30;;;0.60;;
51066;SDS011;37112;45.892;-123.962;2023-05-15T02:52:42;1.00;;;0.40;;
51066;SDS011;37112;45.892;-123.962;2023-05-15T02:55:16;0.90;;;0.30;;
51066;SDS011;37112;45.892;-123.962;2023-05-15T02:57:45;0.70;;;0.40;;
51066;SDS011;37112;45.892;-123.962;2023-05-15T03:00:03;1.80;;;0.40;;
51066;SDS011;37112;45.892;-123.962;2023-05-15T03:02:40;0.50;;;0.40;;
51066;SDS011;37112;45.892;-123.962;2023-05-15T03:05:14;2.10;;;0.40;;
51066;SDS011;37112;45.892;-123.962;2023-05-15T03:07:37;2.40;;;0.70;;
51066;SDS011;37112;45.892;-123.962;2023-05-15T03:10:02;2.60;;;0.50;;
51066;SDS011;37112;45.892;-123.962;2023-05-15T03:12:38;1.10;;;0.50;;
51066;SDS011;37112;45.892;-123.962;2023-05-15T03:15:32;1.30;;;0.40;;
51066;SDS011;37112;45.892;-123.962;2023-05-15T03:18:05;1.80;;;0.40;;
51066;SDS011;37112;45.892;-123.962;2023-05-15T03:20:52;1.50;;;0.60;;
51066;SDS011;37112;45.892;-123.962;2023-05-15T03:23:25;2.20;;;0.50;;
51066;SDS011;37112;45.892;-123.962;2023-05-15T03:25:52;1.10;;;0.60;;
51066;SDS011;37112;45.892;-123.962;2023-05-15T03:28:25;0.60;;;0.50;;
51066;SDS011;37112;45.892;-123.962;2023-05-15T03:30:52;2.10;;;0.40;;
51066;SDS011;37112;45.892;-123.962;2023-05-15T03:33:26;4.30;;;0.50;;
51066;SDS011;37112;45.892;-123.962;2023-05-15T03:35:50;2.10;;;0.50;;
51066;SDS011;37112;45.892;-123.962;2023-05-15T03:38:25;2.00;;;0.50;;
51066;SDS011;37112;45.892;-123.962;2023-05-15T03:40:47;1.30;;;0.60;;
51066;SDS011;37112;45.892;-123.962;2023-05-15T03:43:12;1.60;;;0.40;;
51066;SDS011;37112;45.892;-123.962;2023-05-15T03:45:37;3.40;;;0.40;;
51066;SDS011;37112;45.892;-123.962;2023-05-15T03:48:00;1.60;;;0.50;;
51066;SDS011;37112;45.892;-123.962;2023-05-15T03:50:35;4.90;;;0.90;;
51066;SDS011;37112;45.892;-123.962;2023-05-15T03:53:09;3.00;;;0.60;;
51066;SDS011;37112;45.892;-123.962;2023-05-15T03:55:32;2.40;;;0.50;;
51066;SDS011;37112;45.892;-123.962;2023-05-15T03:57:51;2.60;;;0.50;;
51066;SDS011;37112;45.892;-123.962;2023-05-15T04:00:24;5.30;;;0.60;;
51066;SDS011;37112;45.892;-123.962;2023-05-15T04:02:58;2.80;;;0.60;;
51066;SDS011;37112;45.892;-123.962;2023-05-15T04:10:31;2.70;;;0.50;;
51066;SDS011;37112;45.892;-123.962;2023-05-15T04:12:54;1.50;;;0.60;;
51066;SDS011;37112;45.892;-123.962;2023-05-15T04:15:24;3.00;;;0.40;;
51066;SDS011;37112;45.892;-123.962;2023-05-15T04:17:59;2.00;;;0.50;;
51066;SDS011;37112;45.892;-123.962;2023-05-15T04:20:25;1.90;;;0.50;;
51066;SDS011;37112;45.892;-123.962;2023-05-15T04:25:33;2.10;;;0.50;;
51066;SDS011;37112;45.892;-123.962;2023-05-15T04:28:06;2.60;;;0.60;;
51066;SDS011;37112;45.892;-123.962;2023-05-15T04:30:42;2.10;;;0.50;;
51066;SDS011;37112;45.892;-123.962;2023-05-15T04:33:16;4.10;;;0.60;;
51066;SDS011;37112;45.892;-123.962;2023-05-15T04:35:46;1.30;;;0.70;;
51066;SDS011;37112;45.892;-123.962;2023-05-15T04:38:03;2.40;;;0.50;;
51066;SDS011;37112;45.892;-123.962;2023-05-15T04:40:25;3.30;;;0.50;;
51066;SDS011;37112;45.892;-123.962;2023-05-15T04:43:06;1.30;;;0.60;;
51066;SDS011;37112;45.892;-123.962;2023-05-15T04:45:31;3.00;;;0.50;;
51066;SDS011;37112;45.892;-123.962;2023-05-15T04:47:58;1.30;;;0.50;;
51066;SDS011;37112;45.892;-123.962;2023-05-15T04:50:32;1.40;;;0.50;;
51066;SDS011;37112;45.892;-123.962;2023-05-15T04:52:51;2.20;;;0.40;;
51066;SDS011;37112;45.892;-123.962;2023-05-15T04:55:25;1.40;;;0.60;;
51066;SDS011;37112;45.892;-123.962;2023-05-15T04:57:46;1.70;;;0.50;;
51066;SDS011;37112;45.892;-123.962;2023-05-15T05:00:21;3.30;;;0.40;;
51066;SDS011;37112;45.892;-123.962;2023-05-15T05:02:57;1.30;;;0.50;;
51066;SDS011;37112;45.892;-123.962;2023-05-15T05:05:24;1.50;;;0.50;;
51066;SDS011;37112;45.892;-123.962;2023-05-15T05:07:50;4.10;;;0.50;;
51066;SDS011;37112;45.892;-123.962;2023-05-15T05:10:23;2.70;;;0.60;;
51066;SDS011;37112;45.892;-123.962;2023-05-15T05:12:58;4.40;;;0.70;;
51066;SDS011;37112;45.892;-123.962;2023-05-15T05:15:21;2.10;;;0.50;;
51066;SDS011;37112;45.892;-123.962;2023-05-15T05:17:55;1.20;;;0.50;;
51066;SDS011;37112;45.892;-123.962;2023-05-15T05:20:30;3.60;;;0.40;;
51066;SDS011;37112;45.892;-123.962;2023-05-15T05:23:03;2.60;;;0.70;;
51066;SDS011;37112;45.892;-123.962;2023-05-15T05:25:38;2.60;;;0.60;;
51066;SDS011;37112;45.892;-123.962;2023-05-15T05:28:12;2.10;;;0.50;;
51066;SDS011;37112;45.892;-123.962;2023-05-15T05:30:46;2.80;;;0.60;;
51066;SDS011;37112;45.892;-123.962;2023-05-15T05:33:21;3.70;;;0.70;;
51066;SDS011;37112;45.892;-123.962;2023-05-15T05:35:44;1.60;;;0.50;;
51066;SDS011;37112;45.892;-123.962;2023-05-15T05:38:18;3.90;;;0.60;;
51066;SDS011;37112;45.892;-123.962;2023-05-15T05:40:53;5.70;;;0.50;;
51066;SDS011;37112;45.892;-123.962;2023-05-15T05:43:26;3.00;;;0.60;;
51066;SDS011;37112;45.892;-123.962;2023-05-15T05:45:50;4.80;;;0.70;;
51066;SDS011;37112;45.892;-123.962;2023-05-15T05:48:23;4.50;;;1.10;;
51066;SDS011;37112;45.892;-123.962;2023-05-15T05:50:54;7.30;;;0.70;;
51066;SDS011;37112;45.892;-123.962;2023-05-15T05:53:32;3.70;;;0.50;;
51066;SDS011;37112;45.892;-123.962;2023-05-15T05:56:06;2.60;;;0.50;;
51066;SDS011;37112;45.892;-123.962;2023-05-15T05:58:40;2.70;;;0.80;;
51066;SDS011;37112;45.892;-123.962;2023-05-15T06:01:14;6.30;;;0.90;;
51066;SDS011;37112;45.892;-123.962;2023-05-15T06:03:52;3.20;;;0.60;;
51066;SDS011;37112;45.892;-123.962;2023-05-15T06:06:26;3.30;;;0.50;;
51066;SDS011;37112;45.892;-123.962;2023-05-15T06:08:52;4.10;;;0.70;;
51066;SDS011;37112;45.892;-123.962;2023-05-15T06:11:26;2.80;;;0.90;;
51066;SDS011;37112;45.892;-123.962;2023-05-15T06:14:00;5.20;;;0.60;;
51066;SDS011;37112;45.892;-123.962;2023-05-15T06:16:35;1.60;;;0.50;;
51066;SDS011;37112;45.892;-123.962;2023-05-15T06:19:10;4.50;;;0.60;;
51066;SDS011;37112;45.892;-123.962;2023-05-15T06:21:37;20.10;;;1.60;;
51066;SDS011;37112;45.892;-123.962;2023-05-15T06:24:00;1.70;;;0.80;;
51066;SDS011;37112;45.892;-123.962;2023-05-15T06:26:21;2.80;;;0.50;;
51066;SDS011;37112;45.892;-123.962;2023-05-15T06:28:55;4.00;;;0.40;;
51066;SDS011;37112;45.892;-123.962;2023-05-15T06:31:19;3.80;;;0.50;;
51066;SDS011;37112;45.892;-123.962;2023-05-15T06:33:53;1.30;;;0.50;;
51066;SDS011;37112;45.892;-123.962;2023-05-15T06:36:26;4.50;;;0.50;;
51066;SDS011;37112;45.892;-123.962;2023-05-15T06:39:01;5.30;;;0.70;;
51066;SDS011;37112;45.892;-123.962;2023-05-15T06:41:36;1.90;;;0.70;;
51066;SDS011;37112;45.892;-123.962;2023-05-15T06:44:10;3.50;;;0.60;;
51066;SDS011;37112;45.892;-123.962;2023-05-15T06:46:46;2.30;;;0.80;;
51066;SDS011;37112;45.892;-123.962;2023-05-15T06:49:20;1.90;;;0.40;;
51066;SDS011;37112;45.892;-123.962;2023-05-15T06:51:55;1.80;;;0.50;;
51066;SDS011;37112;45.892;-123.962;2023-05-15T06:54:17;4.30;;;0.60;;
51066;SDS011;37112;45.892;-123.962;2023-05-15T06:56:53;4.50;;;0.60;;
51066;SDS011;37112;45.892;-123.962;2023-05-15T06:59:27;0.90;;;0.40;;
51066;SDS011;37112;45.892;-123.962;2023-05-15T07:02:03;1.80;;;0.50;;
51066;SDS011;37112;45.892;-123.962;2023-05-15T07:04:37;4.80;;;0.90;;
51066;SDS011;37112;45.892;-123.962;2023-05-15T07:07:00;2.10;;;0.50;;
51066;SDS011;37112;45.892;-123.962;2023-05-15T07:09:34;2.70;;;0.40;;
51066;SDS011;37112;45.892;-123.962;2023-05-15T07:12:09;2.90;;;0.50;;
51066;SDS011;37112;45.892;-123.962;2023-05-15T07:14:44;0.90;;;0.40;;
51066;SDS011;37112;45.892;-123.962;2023-05-15T07:17:18;1.30;;;0.50;;
51066;SDS011;37112;45.892;-123.962;2023-05-15T07:19:46;0.90;;;0.40;;
51066;SDS011;37112;45.892;-123.962;2023-05-15T07:22:20;1.40;;;0.40;;
51066;SDS011;37112;45.892;-123.962;2023-05-15T07:24:59;0.70;;;0.50;;
51066;SDS011;37112;45.892;-123.962;2023-05-15T07:27:35;3.50;;;0.50;;
51066;SDS011;37112;45.892;-123.962;2023-05-15T07:30:10;4.00;;;0.80;;
51066;SDS011;37112;45.892;-123.962;2023-05-15T07:32:47;2.60;;;0.30;;
51066;SDS011;37112;45.892;-123.962;2023-05-15T07:35:21;0.30;;;0.30;;
51066;SDS011;37112;45.892;-123.962;2023-05-15T07:37:56;2.10;;;0.80;;
51066;SDS011;37112;45.892;-123.962;2023-05-15T07:40:23;1.60;;;0.60;;
51066;SDS011;37112;45.892;-123.962;2023-05-15T07:42:45;2.70;;;0.40;;
51066;SDS011;37112;45.892;-123.962;2023-05-15T07:45:20;0.80;;;0.40;;
51066;SDS011;37112;45.892;-123.962;2023-05-15T07:47:54;2.70;;;0.40;;
51066;SDS011;37112;45.892;-123.962;2023-05-15T07:50:30;2.30;;;0.40;;
51066;SDS011;37112;45.892;-123.962;2023-05-15T07:53:04;0.80;;;0.40;;
51066;SDS011;37112;45.892;-123.962;2023-05-15T07:55:38;1.60;;;0.50;;
51066;SDS011;37112;45.892;-123.962;2023-05-15T07:58:14;1.50;;;0.50;;
51066;SDS011;37112;45.892;-123.962;2023-05-15T08:00:48;1.70;;;0.40;;
51066;SDS011;37112;45.892;-123.962;2023-05-15T08:03:23;1.30;;;0.40;;
51066;SDS011;37112;45.892;-123.962;2023-05-15T08:05:57;2.20;;;0.40;;
51066;SDS011;37112;45.892;-123.962;2023-05-15T08:08:33;2.20;;;0.30;;
51066;SDS011;37112;45.892;-123.962;2023-05-15T08:11:06;2.30;;;0.60;;
51066;SDS011;37112;45.892;-123.962;2023-05-15T08:13:40;0.90;;;0.40;;
51066;SDS011;37112;45.892;-123.962;2023-05-15T08:16:14;0.90;;;0.40;;
51066;SDS011;37112;45.892;-123.962;2023-05-15T08:18:47;1.70;;;0.30;;
51066;SDS011;37112;45.892;-123.962;2023-05-15T08:21:18;1.50;;;0.40;;
51066;SDS011;37112;45.892;-123.962;2023-05-15T08:23:52;1.10;;;0.40;;
51066;SDS011;37112;45.892;-123.962;2023-05-15T08:26:26;9.60;;;0.70;;
51066;SDS011;37112;45.892;-123.962;2023-05-15T08:29:00;0.40;;;0.30;;
51066;SDS011;37112;45.892;-123.962;2023-05-15T08:31:34;0.40;;;0.30;;
51066;SDS011;37112;45.892;-123.962;2023-05-15T08:34:08;2.30;;;0.40;;
51066;SDS011;37112;45.892;-123.962;2023-05-15T08:36:34;2.70;;;0.50;;
51066;SDS011;37112;45.892;-123.962;2023-05-15T08:39:09;2.00;;;0.40;;
51066;SDS011;37112;45.892;-123.962;2023-05-15T08:41:45;0.60;;;0.30;;
51066;SDS011;37112;45.892;-123.962;2023-05-15T08:44:22;3.30;;;0.40;;
51066;SDS011;37112;45.892;-123.962;2023-05-15T08:46:56;0.70;;;0.30;;
51066;SDS011;37112;45.892;-123.962;2023-05-15T08:49:32;2.00;;;0.30;;
51066;SDS011;37112;45.892;-123.962;2023-05-15T08:52:13;1.60;;;0.30;;
51066;SDS011;37112;45.892;-123.962;2023-05-15T08:54:49;0.90;;;0.40;;
51066;SDS011;37112;45.892;-123.962;2023-05-15T08:57:24;1.40;;;0.30;;
51066;SDS011;37112;45.892;-123.962;2023-05-15T08:59:58;2.70;;;0.40;;
51066;SDS011;37112;45.892;-123.962;2023-05-15T09:02:27;0.90;;;0.40;;
51066;SDS011;37112;45.892;-123.962;2023-05-15T09:05:02;3.30;;;0.40;;
51066;SDS011;37112;45.892;-123.962;2023-05-15T09:07:39;1.20;;;0.40;;
51066;SDS011;37112;45.892;-123.962;2023-05-15T09:10:14;2.30;;;0.30;;
51066;SDS011;37112;45.892;-123.962;2023-05-15T09:12:42;3.20;;;0.30;;
51066;SDS011;37112;45.892;-123.962;2023-05-15T09:15:14;2.10;;;0.40;;
51066;SDS011;37112;45.892;-123.962;2023-05-15T09:17:51;18.90;;;3.00;;
51066;SDS011;37112;45.892;-123.962;2023-05-15T09:20:27;48.20;;;9.10;;
51066;SDS011;37112;45.892;-123.962;2023-05-15T09:22:55;31.50;;;7.50;;
51066;SDS011;37112;45.892;-123.962;2023-05-15T09:25:37;26.00;;;6.00;;
51066;SDS011;37112;45.892;-123.962;2023-05-15T09:31:05;27.20;;;7.10;;
51066;SDS011;37112;45.892;-123.962;2023-05-15T09:33:31;31.40;;;7.10;;
51066;SDS011;37112;45.892;-123.962;2023-05-15T09:36:02;40.30;;;8.30;;
51066;SDS011;37112;45.892;-123.962;2023-05-15T09:38:40;30.80;;;6.90;;
51066;SDS011;37112;45.892;-123.962;2023-05-15T09:41:17;34.20;;;7.40;;
51066;SDS011;37112;45.892;-123.962;2023-05-15T09:43:57;35.30;;;9.30;;
51066;SDS011;37112;45.892;-123.962;2023-05-15T09:46:30;38.50;;;8.80;;
51066;SDS011;37112;45.892;-123.962;2023-05-15T09:49:08;44.60;;;9.00;;
51066;SDS011;37112;45.892;-123.962;2023-05-15T09:51:44;35.40;;;8.00;;
51066;SDS011;37112;45.892;-123.962;2023-05-15T09:54:20;34.70;;;8.00;;
51066;SDS011;37112;45.892;-123.962;2023-05-15T09:57:05;37.80;;;7.30;;
51066;SDS011;37112;45.892;-123.962;2023-05-15T09:59:44;33.10;;;7.10;;
51066;SDS011;37112;45.892;-123.962;2023-05-15T10:02:21;26.00;;;5.30;;
51066;SDS011;37112;45.892;-123.962;2023-05-15T10:05:06;33.30;;;7.40;;
51066;SDS011;37112;45.892;-123.962;2023-05-15T10:07:30;28.90;;;7.10;;
51066;SDS011;37112;45.892;-123.962;2023-05-15T10:09:54;31.00;;;6.70;;
51066;SDS011;37112;45.892;-123.962;2023-05-15T10:12:28;27.10;;;4.60;;
51066;SDS011;37112;45.892;-123.962;2023-05-15T10:15:05;23.20;;;5.50;;
51066;SDS011;37112;45.892;-123.962;2023-05-15T10:17:41;28.30;;;5.40;;
51066;SDS011;37112;45.892;-123.962;2023-05-15T10:20:18;29.50;;;5.50;;
51066;SDS011;37112;45.892;-123.962;2023-05-15T10:22:53;44.00;;;7.80;;
51066;SDS011;37112;45.892;-123.962;2023-05-15T10:25:30;69.90;;;12.30;;
51066;SDS011;37112;45.892;-123.962;2023-05-15T10:28:09;82.90;;;12.50;;
51066;SDS011;37112;45.892;-123.962;2023-05-15T10:30:34;88.30;;;17.60;;
51066;SDS011;37112;45.892;-123.962;2023-05-15T10:33:08;70.90;;;11.80;;
51066;SDS011;37112;45.892;-123.962;2023-05-15T10:35:44;56.40;;;13.70;;
51066;SDS011;37112;45.892;-123.962;2023-05-15T10:38:14;80.80;;;16.20;;
51066;SDS011;37112;45.892;-123.962;2023-05-15T10:40:37;67.60;;;13.60;;
51066;SDS011;37112;45.892;-123.962;2023-05-15T10:43:07;66.20;;;11.30;;
51066;SDS011;37112;45.892;-123.962;2023-05-15T10:45:34;89.80;;;14.80;;
51066;SDS011;37112;45.892;-123.962;2023-05-15T10:48:02;54.80;;;9.50;;
51066;SDS011;37112;45.892;-123.962;2023-05-15T10:50:31;52.00;;;8.60;;
51066;SDS011;37112;45.892;-123.962;2023-05-15T10:53:06;59.90;;;8.30;;
51066;SDS011;37112;45.892;-123.962;2023-05-15T10:55:42;37.90;;;7.80;;
51066;SDS011;37112;45.892;-123.962;2023-05-15T10:58:20;49.20;;;7.60;;
51066;SDS011;37112;45.892;-123.962;2023-05-15T11:00:55;33.50;;;7.20;;
51066;SDS011;37112;45.892;-123.962;2023-05-15T11:03:38;22.80;;;4.60;;
51066;SDS011;37112;45.892;-123.962;2023-05-15T11:06:10;33.00;;;6.10;;
51066;SDS011;37112;45.892;-123.962;2023-05-15T11:08:37;38.90;;;7.40;;
51066;SDS011;37112;45.892;-123.962;2023-05-15T11:11:01;42.40;;;6.50;;
51066;SDS011;37112;45.892;-123.962;2023-05-15T11:13:25;39.90;;;7.40;;
51066;SDS011;37112;45.892;-123.962;2023-05-15T11:16:32;46.10;;;7.60;;
51066;SDS011;37112;45.892;-123.962;2023-05-15T11:19:33;34.60;;;5.50;;
51066;SDS011;37112;45.892;-123.962;2023-05-15T11:22:29;43.50;;;8.20;;
51066;SDS011;37112;45.892;-123.962;2023-05-15T11:25:05;75.30;;;12.20;;
51066;SDS011;37112;45.892;-123.962;2023-05-15T11:27:41;73.50;;;13.40;;
51066;SDS011;37112;45.892;-123.962;2023-05-15T11:30:16;57.50;;;12.10;;
51066;SDS011;37112;45.892;-123.962;2023-05-15T11:32:55;57.10;;;12.50;;
51066;SDS011;37112;45.892;-123.962;2023-05-15T11:35:20;34.70;;;8.10;;
51066;SDS011;37112;45.892;-123.962;2023-05-15T11:37:56;36.00;;;8.90;;
51066;SDS011;37112;45.892;-123.962;2023-05-15T11:40:35;35.90;;;8.10;;
51066;SDS011;37112;45.892;-123.962;2023-05-15T11:43:20;35.90;;;10.40;;
51066;SDS011;37112;45.892;-123.962;2023-05-15T11:45:44;32.50;;;9.40;;
51066;SDS011;37112;45.892;-123.962;2023-05-15T11:48:21;30.50;;;6.50;;
51066;SDS011;37112;45.892;-123.962;2023-05-15T11:51:10;33.90;;;6.30;;
51066;SDS011;37112;45.892;-123.962;2023-05-15T11:53:48;25.00;;;6.30;;
51066;SDS011;37112;45.892;-123.962;2023-05-15T11:56:24;38.10;;;10.30;;
51066;SDS011;37112;45.892;-123.962;2023-05-15T11:58:59;28.40;;;6.60;;
51066;SDS011;37112;45.892;-123.962;2023-05-15T12:01:39;31.40;;;8.50;;
51066;SDS011;37112;45.892;-123.962;2023-05-15T12:04:16;29.90;;;7.90;;
51066;SDS011;37112;45.892;-123.962;2023-05-15T12:06:51;31.50;;;8.20;;
51066;SDS011;37112;45.892;-123.962;2023-05-15T12:09:29;25.80;;;5.90;;
51066;SDS011;37112;45.892;-123.962;2023-05-15T12:12:04;32.40;;;6.00;;
51066;SDS011;37112;45.892;-123.962;2023-05-15T12:14:42;32.80;;;8.60;;
51066;SDS011;37112;45.892;-123.962;2023-05-15T12:17:16;27.60;;;6.50;;
51066;SDS011;37112;45.892;-123.962;2023-05-15T12:19:39;24.10;;;6.50;;
51066;SDS011;37112;45.892;-123.962;2023-05-15T12:22:16;33.40;;;9.30;;
51066;SDS011;37112;45.892;-123.962;2023-05-15T12:24:41;32.30;;;6.80;;
51066;SDS011;37112;45.892;-123.962;2023-05-15T12:27:14;49.00;;;9.60;;
51066;SDS011;37112;45.892;-123.962;2023-05-15T12:29:51;31.30;;;8.60;;
51066;SDS011;37112;45.892;-123.962;2023-05-15T12:32:26;39.60;;;7.70;;
51066;SDS011;37112;45.892;-123.962;2023-05-15T12:35:01;33.40;;;7.10;;
51066;SDS011;37112;45.892;-123.962;2023-05-15T12:37:37;21.40;;;7.00;;
51066;SDS011;37112;45.892;-123.962;2023-05-15T12:40:13;25.40;;;7.60;;
51066;SDS011;37112;45.892;-123.962;2023-05-15T12:42:52;31.30;;;6.80;;
51066;SDS011;37112;45.892;-123.962;2023-05-15T12:45:15;36.00;;;7.60;;
51066;SDS011;37112;45.892;-123.962;2023-05-15T12:47:56;36.90;;;10.00;;
51066;SDS011;37112;45.892;-123.962;2023-05-15T12:50:32;37.10;;;8.90;;
51066;SDS011;37112;45.892;-123.962;2023-05-15T12:52:56;41.90;;;9.70;;
51066;SDS011;37112;45.892;-123.962;2023-05-15T12:55:33;39.70;;;7.10;;
51066;SDS011;37112;45.892;-123.962;2023-05-15T12:58:10;41.70;;;7.20;;
51066;SDS011;37112;45.892;-123.962;2023-05-15T13:00:48;42.90;;;8.60;;
51066;SDS011;37112;45.892;-123.962;2023-05-15T13:03:26;43.80;;;8.50;;
51066;SDS011;37112;45.892;-123.962;2023-05-15T13:06:01;44.70;;;12.40;;
51066;SDS011;37112;45.892;-123.962;2023-05-15T13:08:29;34.40;;;9.30;;
51066;SDS011;37112;45.892;-123.962;2023-05-15T13:13:44;31.80;;;7.70;;
51066;SDS011;37112;45.892;-123.962;2023-05-15T13:16:19;32.30;;;7.30;;
51066;SDS011;37112;45.892;-123.962;2023-05-15T13:18:47;35.40;;;7.30;;
51066;SDS011;37112;45.892;-123.962;2023-05-15T13:21:09;30.50;;;6.40;;
51066;SDS011;37112;45.892;-123.962;2023-05-15T13:23:44;32.80;;;7.00;;
51066;SDS011;37112;45.892;-123.962;2023-05-15T13:26:18;30.90;;;9.10;;
51066;SDS011;37112;45.892;-123.962;2023-05-15T13:28:52;27.50;;;6.10;;
51066;SDS011;37112;45.892;-123.962;2023-05-15T13:31:27;33.30;;;7.70;;
51066;SDS011;37112;45.892;-123.962;2023-05-15T13:34:01;27.50;;;7.00;;
51066;SDS011;37112;45.892;-123.962;2023-05-15T13:36:24;30.60;;;5.90;;
51066;SDS011;37112;45.892;-123.962;2023-05-15T13:38:58;22.70;;;5.20;;
51066;SDS011;37112;45.892;-123.962;2023-05-15T13:41:24;28.10;;;6.60;;
51066;SDS011;37112;45.892;-123.962;2023-05-15T13:43:58;21.30;;;4.20;;
51066;SDS011;37112;45.892;-123.962;2023-05-15T13:46:34;21.50;;;4.50;;
51066;SDS011;37112;45.892;-123.962;2023-05-15T13:49:00;32.00;;;6.80;;
51066;SDS011;37112;45.892;-123.962;2023-05-15T13:51:35;26.30;;;5.60;;
51066;SDS011;37112;45.892;-123.962;2023-05-15T13:54:09;25.30;;;7.40;;
51066;SDS011;37112;45.892;-123.962;2023-05-15T13:56:37;29.50;;;7.40;;
51066;SDS011;37112;45.892;-123.962;2023-05-15T13:59:11;30.50;;;7.50;;
51066;SDS011;37112;45.892;-123.962;2023-05-15T14:01:33;35.40;;;8.10;;
51066;SDS011;37112;45.892;-123.962;2023-05-15T14:04:07;22.10;;;4.70;;
51066;SDS011;37112;45.892;-123.962;2023-05-15T14:06:41;32.60;;;5.90;;
51066;SDS011;37112;45.892;-123.962;2023-05-15T14:09:05;36.50;;;6.40;;
51066;SDS011;37112;45.892;-123.962;2023-05-15T14:11:39;32.20;;;8.70;;
51066;SDS011;37112;45.892;-123.962;2023-05-15T14:14:00;23.50;;;5.80;;
51066;SDS011;37112;45.892;-123.962;2023-05-15T14:17:00;27.30;;;6.40;;
51066;SDS011;37112;45.892;-123.962;2023-05-15T14:19:36;37.30;;;6.20;;
51066;SDS011;37112;45.892;-123.962;2023-05-15T14:22:10;29.20;;;7.80;;
51066;SDS011;37112;45.892;-123.962;2023-05-15T14:24:46;29.00;;;6.20;;
51066;SDS011;37112;45.892;-123.962;2023-05-15T14:27:21;29.80;;;6.10;;
51066;SDS011;37112;45.892;-123.962;2023-05-15T14:29:57;33.10;;;7.10;;
51066;SDS011;37112;45.892;-123.962;2023-05-15T14:32:25;33.80;;;7.60;;
51066;SDS011;37112;45.892;-123.962;2023-05-15T14:35:00;28.40;;;7.10;;
51066;SDS011;37112;45.892;-123.962;2023-05-15T14:37:36;24.10;;;4.90;;
51066;SDS011;37112;45.892;-123.962;2023-05-15T14:40:11;24.20;;;5.60;;
51066;SDS011;37112;45.892;-123.962;2023-05-15T14:42:44;23.80;;;5.00;;
51066;SDS011;37112;45.892;-123.962;2023-05-15T14:45:08;20.70;;;4.50;;
51066;SDS011;37112;45.892;-123.962;2023-05-15T14:47:32;25.40;;;5.70;;
51066;SDS011;37112;45.892;-123.962;2023-05-15T14:49:55;30.60;;;5.30;;
51066;SDS011;37112;45.892;-123.962;2023-05-15T14:52:30;33.60;;;4.90;;
51066;SDS011;37112;45.892;-123.962;2023-05-15T14:55:05;18.30;;;3.70;;
51066;SDS011;37112;45.892;-123.962;2023-05-15T14:57:40;24.20;;;5.40;;